createdAt,value
2023-05-23T00:01:17.218Z,88.75891784977713
2023-05-23T00:04:19.123Z,88.45486113735079
2023-05-23T00:07:16.931Z,88.49366504395167
2023-05-23T00:11:16.494Z,88.45756141572951
2023-05-23T00:14:17.180Z,88.51030106339098
2023-05-23T00:17:17.668Z,88.70989482438881
2023-05-23T00:21:16.126Z,89.05490660053596
2023-05-23T00:24:19.161Z,89.20521212791368
2023-05-23T00:27:16.171Z,89.12715068742578
2023-05-23T00:31:16.522Z,89.23241431486508
2023-05-23T00:34:18.117Z,89.25388668891877
2023-05-23T00:37:16.925Z,89.43694657668146
2023-05-23T00:41:16.475Z,89.65651662688175
2023-05-23T00:44:16.474Z,89.70890687735513
2023-05-23T00:47:17.631Z,89.76733105507299
2023-05-23T00:51:16.566Z,89.69608255669124
2023-05-23T00:54:23.046Z,89.76042910488576
2023-05-23T00:57:17.151Z,89.88421408669382
2023-05-23T01:01:16.494Z,89.94594291464364
2023-05-23T01:04:17.085Z,89.98149629512433
2023-05-23T01:07:16.527Z,90.0729856492422
2023-05-23T01:11:27.368Z,90.22012088701479
2023-05-23T01:14:21.342Z,90.49043614426125
2023-05-23T01:17:24.749Z,90.53865404615962
2023-05-23T01:21:18.729Z,90.46964517186049
2023-05-23T01:24:35.140Z,90.44516921674347
2023-05-23T01:27:30.516Z,90.52706719670097
2023-05-23T01:31:17.584Z,90.9518481902952
2023-05-23T01:34:20.294Z,91.09604544178593
2023-05-23T01:37:19.942Z,91.14784059582745
2023-05-23T01:41:16.616Z,91.4243165752915
2023-05-23T01:44:18.162Z,91.56466156523167
2023-05-23T01:47:17.580Z,91.66966445009874
2023-05-23T01:51:16.802Z,92.1939896816453
2023-05-23T01:54:17.810Z,92.07352139956485
2023-05-23T01:57:17.800Z,92.22280809609968
2023-05-23T02:01:16.995Z,92.53774543738258
2023-05-23T02:04:16.585Z,92.59412980645712
2023-05-23T02:07:16.453Z,92.65302013937566
2023-05-23T02:11:16.178Z,92.69056500220131
2023-05-23T02:14:16.325Z,92.69881662013866
2023-05-23T02:17:17.222Z,92.65052870907186
2023-05-23T02:21:16.076Z,92.77788580669844
2023-05-23T02:24:16.853Z,92.48825487474681
2023-05-23T02:27:16.790Z,92.65753879067567
2023-05-23T02:31:17.534Z,92.95005962624681
2023-05-23T02:34:16.839Z,93.12204664360314
2023-05-23T02:37:16.701Z,93.41242912852935
2023-05-23T02:41:16.571Z,93.64104784949708
2023-05-23T02:44:19.660Z,93.99191867258705
2023-05-23T02:47:16.752Z,94.13742210660206
2023-05-23T02:51:16.354Z,94.04955151332167
2023-05-23T02:54:17.054Z,93.61970245678573
2023-05-23T02:57:16.318Z,93.46393323009714
2023-05-23T03:01:16.510Z,93.48173184692905
2023-05-23T03:04:16.895Z,93.4589179832981
2023-05-23T03:07:27.750Z,93.35463407161966
2023-05-23T03:11:16.489Z,93.77834011902698
2023-05-23T03:14:16.852Z,93.90202353667243
2023-05-23T03:17:16.632Z,93.8086667801132
2023-05-23T03:21:16.390Z,93.86650734533768
2023-05-23T03:24:16.951Z,94.32554861013847
2023-05-23T03:27:16.693Z,94.43493872100714
2023-05-23T03:31:16.488Z,94.43557634812936
2023-05-23T03:34:16.931Z,94.67026384855592
2023-05-23T03:37:16.797Z,94.75698796953917
2023-05-23T03:41:16.012Z,94.94324428014157
2023-05-23T03:44:16.465Z,95.34835487200203
2023-05-23T03:47:16.415Z,95.42684635510295
2023-05-23T03:51:16.597Z,95.6440221572107
2023-05-23T03:54:17.614Z,95.62335265081998
2023-05-23T03:57:16.677Z,95.77910326059524
2023-05-23T04:01:16.180Z,96.13739700011031
2023-05-23T04:04:17.487Z,96.22421031483783
2023-05-23T04:07:16.898Z,96.67325447080042
2023-05-23T04:11:17.081Z,97.19542647526198
2023-05-23T04:14:17.581Z,97.2216821105083
2023-05-23T04:17:16.858Z,98.0225644721413
2023-05-23T04:21:15.858Z,98.42920140047546
2023-05-23T04:24:16.400Z,98.49826968133794
2023-05-23T04:27:16.269Z,98.48830246393369
2023-05-23T04:31:16.179Z,98.51556356051063
2023-05-23T04:34:17.527Z,98.61107777205673
2023-05-23T04:37:17.563Z,98.76679818414966
2023-05-23T04:41:16.637Z,99.19403144654402
2023-05-23T04:44:17.263Z,98.95243813860114
2023-05-23T04:47:16.918Z,98.98795918215622
2023-05-23T04:51:16.841Z,99.2819524031315
2023-05-23T04:54:17.276Z,99.26162721329024
2023-05-23T04:57:17.417Z,99.41763532018385
2023-05-23T05:01:16.354Z,99.69223032360416
2023-05-23T05:04:16.588Z,100
2023-05-23T05:07:17.579Z,100
2023-05-23T05:11:16.757Z,100
2023-05-23T05:14:17.011Z,100
2023-05-23T05:17:17.265Z,100
2023-05-23T05:21:16.278Z,100
2023-05-23T05:24:17.270Z,100
2023-05-23T05:27:16.745Z,100
2023-05-23T05:31:16.338Z,100
2023-05-23T05:34:16.397Z,100
2023-05-23T05:37:16.739Z,100
2023-05-23T05:41:15.920Z,100
2023-05-23T05:44:16.231Z,100
2023-05-23T05:47:16.263Z,100
2023-05-23T05:51:16.773Z,100
2023-05-23T05:54:19.098Z,100
2023-05-23T05:57:16.879Z,100
2023-05-23T06:01:16.160Z,100
2023-05-23T06:04:16.986Z,100
2023-05-23T06:07:16.375Z,100
2023-05-23T06:11:16.623Z,100
2023-05-23T06:14:17.027Z,100
2023-05-23T06:17:17.050Z,100
2023-05-23T06:21:16.054Z,100
2023-05-23T06:24:16.403Z,100
2023-05-23T06:27:16.358Z,100
2023-05-23T06:31:16.874Z,100
2023-05-23T06:34:17.172Z,100
2023-05-23T06:37:18.116Z,100
2023-05-23T06:41:15.831Z,100
2023-05-23T06:44:16.268Z,100
2023-05-23T06:47:16.304Z,100
2023-05-23T06:51:15.862Z,100
2023-05-23T06:54:16.347Z,100
2023-05-23T06:57:16.491Z,100
2023-05-23T07:01:16.467Z,100
2023-05-23T07:04:16.532Z,100
2023-05-23T07:07:16.827Z,100
2023-05-23T07:11:16.856Z,100
2023-05-23T07:14:16.818Z,100
2023-05-23T07:17:17.126Z,100
2023-05-23T07:21:16.309Z,100
2023-05-23T07:24:16.607Z,100
2023-05-23T07:27:16.693Z,100
2023-05-23T07:31:16.260Z,100
2023-05-23T07:34:16.375Z,100
2023-05-23T07:37:16.489Z,100
2023-05-23T07:41:16.182Z,100
2023-05-23T07:44:18.666Z,100
2023-05-23T07:47:16.622Z,100
2023-05-23T07:51:21.552Z,100
2023-05-23T07:54:17.290Z,100
2023-05-23T07:57:17.163Z,100
2023-05-23T08:01:16.231Z,100
2023-05-23T08:04:17.105Z,100
2023-05-23T08:07:19.223Z,100
2023-05-23T08:11:16.254Z,100
2023-05-23T08:14:16.336Z,100
2023-05-23T08:17:16.499Z,100
2023-05-23T08:21:16.764Z,100
2023-05-23T08:24:17.112Z,98.60449315651107
2023-05-23T08:27:17.163Z,98.65430555254774
2023-05-23T08:31:16.589Z,96.9826041738471
2023-05-23T08:34:16.815Z,96.91979952560366
2023-05-23T08:37:16.766Z,97.48190377355677
2023-05-23T08:41:20.294Z,97.14999173117918
2023-05-23T08:44:17.454Z,97.61599203785562
2023-05-23T08:47:19.458Z,98.52477265622423
2023-05-23T08:51:18.171Z,96.38045155626456
2023-05-23T08:54:17.658Z,97.08531151583756
2023-05-23T08:57:17.212Z,98.0843310792276
2023-05-23T09:01:21.333Z,97.83629340334062
2023-05-23T09:04:17.127Z,95.61373439683138
2023-05-23T09:07:18.751Z,92.9988518966539
2023-05-23T09:11:16.555Z,93.97652451609429
2023-05-23T09:14:18.300Z,91.89318271263716
2023-05-23T09:17:18.508Z,91.92717065088955
2023-05-23T09:21:16.300Z,92.5511703837573
2023-05-23T09:24:16.685Z,91.2913658303285
2023-05-23T09:27:16.787Z,90.56845652678663
2023-05-23T09:31:16.829Z,91.082813835061
2023-05-23T09:34:17.132Z,89.93789656906371
2023-05-23T09:37:19.676Z,89.13402106759499
2023-05-23T09:41:19.859Z,86.27857700568225
2023-05-23T09:44:22.528Z,85.41952762337911
2023-05-23T09:47:17.233Z,85.21631839349162
2023-05-23T09:51:18.797Z,84.11830649213034
2023-05-23T09:54:16.496Z,83.39441132633816
2023-05-23T09:57:18.520Z,82.25883005164873
2023-05-23T10:01:18.384Z,80.98801464269658
2023-05-23T10:04:21.322Z,79.13398193696116
2023-05-23T10:07:22.056Z,76.37369184824486
2023-05-23T10:21:23.433Z,73.87547106960675
2023-05-23T10:24:18.048Z,72.51659056305874
2023-05-23T10:27:17.248Z,73.25112411792362
2023-05-23T10:31:17.005Z,72.50777619732831
2023-05-23T10:34:26.730Z,71.46884229929476
2023-05-23T10:37:23.622Z,70.7850529094441
2023-05-23T10:41:24.685Z,70.54341369395136
2023-05-23T10:44:22.938Z,68.3861543236991
2023-05-23T10:47:26.431Z,68.2635116161128
2023-05-23T10:51:17.553Z,70.08763658482567
2023-05-23T10:54:18.413Z,65.82677349457201
2023-05-23T10:57:19.379Z,64.26209950248926
2023-05-23T11:01:17.122Z,65.34812932159001
2023-05-23T11:04:25.067Z,64.5824680842463
2023-05-23T11:07:32.933Z,61.57235594694694
2023-05-23T11:11:16.963Z,59.89037643415686
2023-05-23T11:14:17.653Z,59.882823727308114
2023-05-23T11:17:28.802Z,59.52549236580283
2023-05-23T11:31:16.841Z,56.753719488954154
2023-05-23T11:34:17.963Z,55.57687150322891
2023-05-23T11:37:19.535Z,54.426572984189406
2023-05-23T11:41:17.423Z,51.326361414228884
2023-05-23T11:44:17.049Z,50.334020487440675
2023-05-23T11:47:17.671Z,51.20529163803507
2023-05-23T11:51:17.169Z,50.89849029039765
2023-05-23T11:54:16.704Z,50.62037090626465
2023-05-23T11:57:16.926Z,51.783192672956616
2023-05-23T12:01:16.941Z,52.11003366559642
2023-05-23T12:04:16.885Z,51.73893020611283
2023-05-23T12:07:19.187Z,53.7027615869477
2023-05-23T12:11:16.325Z,54.15905016464096
2023-05-23T12:14:18.352Z,51.71730726017308
2023-05-23T12:17:17.289Z,52.81717738624038
2023-05-23T12:21:16.693Z,51.197139261298894
2023-05-23T12:24:20.142Z,52.406440674358656
2023-05-23T12:27:18.273Z,52.67997150068807
2023-05-23T12:31:20.446Z,53.06329899447329
2023-05-23T12:34:19.888Z,54.044391249131245
2023-05-23T12:37:19.714Z,55.79654830079361
2023-05-23T12:41:20.012Z,53.29765037146299
2023-05-23T12:44:17.357Z,53.70242972826513
2023-05-23T12:47:17.143Z,51.26843790734783
2023-05-23T12:51:17.896Z,51.817980959736836
2023-05-23T12:54:17.876Z,53.02458996010351
2023-05-23T12:57:17.066Z,54.20101007299759
2023-05-23T13:01:16.493Z,55.15503623350882
2023-05-23T13:04:16.957Z,56.07031463580819
2023-05-23T13:07:16.712Z,54.20793294302114
2023-05-23T13:11:17.344Z,56.91159663522524
2023-05-23T13:14:16.734Z,58.359612468997234
2023-05-23T13:17:17.204Z,59.446671879935636
2023-05-23T13:21:17.017Z,60.39847051268135
2023-05-23T13:24:20.130Z,61.317641077670174
2023-05-23T13:27:18.661Z,61.99833893475268
2023-05-23T13:31:16.386Z,62.10426957098015
2023-05-23T13:34:16.737Z,62.74389298722269
2023-05-23T13:37:18.380Z,63.019199619220224
2023-05-23T13:41:16.991Z,63.187887302215934
2023-05-23T13:44:16.626Z,63.03597817025557
2023-05-23T13:47:16.754Z,63.16553655793778
2023-05-23T13:51:16.818Z,64.03302472547553
2023-05-23T13:54:17.066Z,64.04920751673087
2023-05-23T13:57:17.208Z,63.89509081508814
2023-05-23T14:01:16.091Z,65.59804858133197
2023-05-23T14:04:16.325Z,66.50647065823506
2023-05-23T14:07:17.107Z,67.66697385945574
2023-05-23T14:11:16.863Z,69.38767932614745
2023-05-23T14:14:17.622Z,70.8929572779442
2023-05-23T14:17:17.587Z,72.03381652086196
2023-05-23T14:21:16.572Z,72.97155633485158
2023-05-23T14:24:16.949Z,73.31552651699445
2023-05-23T14:27:17.028Z,73.22828925699419
2023-05-23T14:31:16.969Z,74.16754510391247
2023-05-23T14:34:17.312Z,72.9830587889657
2023-05-23T14:37:17.400Z,71.65565952758173
2023-05-23T14:41:16.240Z,68.04517340630686
2023-05-23T14:44:16.561Z,67.50369648042694
2023-05-23T14:47:16.359Z,67.43473928105618
2023-05-23T15:01:17.017Z,68.28844363478169
2023-05-23T15:04:17.149Z,67.98480735548087
2023-05-23T15:07:18.634Z,67.83240840233006
2023-05-23T15:11:16.981Z,67.82408765561529
2023-05-23T15:14:16.969Z,68.84165588875257
2023-05-23T15:17:20.540Z,68.40391184264051
2023-05-23T15:21:16.689Z,69.44225892944934
2023-05-23T15:24:16.943Z,70.44097635033596
2023-05-23T15:27:20.986Z,70.47193319742148
2023-05-23T15:31:16.175Z,70.83825181367143
2023-05-23T15:34:16.383Z,71.10298727670812
2023-05-23T15:37:16.940Z,71.62232759215827
2023-05-23T15:41:16.397Z,73.1918917304414
2023-05-23T15:44:19.984Z,74.05949304254398
2023-05-23T15:47:16.594Z,74.31571747421089
2023-05-23T15:51:16.763Z,74.11563529390308
2023-05-23T15:54:16.312Z,74.27357591477254
2023-05-23T15:57:16.424Z,73.51055002512172
2023-05-23T16:01:16.563Z,74.20412286110624
2023-05-23T16:04:16.577Z,73.66980752854855
2023-05-23T16:07:18.479Z,73.60365445426638
2023-05-23T16:11:17.153Z,73.28089130500203
2023-05-23T16:14:17.513Z,73.69809443548365
2023-05-23T16:17:17.378Z,75.93682076789368
2023-05-23T16:21:20.858Z,78.68731115980718
2023-05-23T16:24:18.587Z,79.86278436915049
2023-05-23T16:27:16.719Z,80.6499494976762
2023-05-23T16:31:17.118Z,80.60012842022054
2023-05-23T16:34:16.455Z,79.86928661918208
2023-05-23T16:37:16.675Z,79.56915492022678
2023-05-23T16:41:18.060Z,79.7994112608262
2023-05-23T16:44:17.171Z,80.43381874674716
2023-05-23T16:47:17.393Z,81.28907123819782
2023-05-23T16:51:16.950Z,81.98830857048858
2023-05-23T16:54:17.931Z,81.74661993822664
2023-05-23T16:57:18.540Z,81.46545232138004
2023-05-23T17:01:17.576Z,81.41077423065259
2023-05-23T17:04:19.611Z,81.70128674040016
2023-05-23T17:07:17.484Z,81.24814747405885
2023-05-23T17:11:17.260Z,81.16463318616029
2023-05-23T17:14:16.675Z,80.78243502218358
2023-05-23T17:17:16.581Z,81.49132386249963
2023-05-23T17:21:16.084Z,80.23458963935671
2023-05-23T17:24:16.859Z,80.22152273553753
2023-05-23T17:27:16.531Z,79.54714185096088
2023-05-23T17:31:17.311Z,80.64362661854665
2023-05-23T17:34:17.862Z,81.09519898403879
2023-05-23T17:37:17.989Z,81.3440613365301
2023-05-23T17:41:16.312Z,82.11632439942903
2023-05-23T17:44:18.418Z,82.47398185652081
2023-05-23T17:47:18.547Z,82.52933406544435
2023-05-23T17:51:16.305Z,82.47296549080932
2023-05-23T17:54:16.610Z,82.21987727742282
2023-05-23T17:57:16.445Z,82.1332509678013
2023-05-23T18:01:16.474Z,81.94682266254169
2023-05-23T18:04:17.805Z,81.82113686593215
2023-05-23T18:07:19.241Z,82.49393123282765
2023-05-23T18:11:16.800Z,83.01615848168001
2023-05-23T18:14:18.942Z,83.08605528402028
2023-05-23T18:17:18.525Z,83.25364331245979
2023-05-23T18:21:18.317Z,83.22721758404842
2023-05-23T18:24:18.510Z,83.47628110641939
2023-05-23T18:27:17.501Z,83.52916918094427
2023-05-23T18:31:16.694Z,83.86381396123689
2023-05-23T18:34:17.048Z,83.74760977313294
2023-05-23T18:37:17.306Z,83.52251405942381
2023-05-23T18:41:17.729Z,83.539940573605
2023-05-23T18:44:20.312Z,83.65137788448996
2023-05-23T18:47:16.719Z,83.76566550519406
2023-05-23T18:51:17.501Z,83.83809862844706
2023-05-23T18:54:17.232Z,83.71692651791251
2023-05-23T18:57:17.699Z,83.84131448426837
2023-05-23T19:01:17.749Z,83.4138506320085
2023-05-23T19:04:18.377Z,83.7316467934179
2023-05-23T19:07:17.012Z,83.3149322683877
2023-05-23T19:11:16.781Z,83.05329560907693
2023-05-23T19:14:16.958Z,82.83041733253887
2023-05-23T19:17:17.137Z,82.29887613094674
2023-05-23T19:21:17.114Z,82.35493864230735
2023-05-23T19:24:17.384Z,82.317304898859
2023-05-23T19:27:20.244Z,82.33849504509338
2023-05-23T19:31:16.570Z,82.38274342908689
2023-05-23T19:34:16.932Z,82.14625918204047
2023-05-23T19:37:17.820Z,81.62022985367415
2023-05-23T19:41:17.022Z,81.55542629334965
2023-05-23T19:44:16.482Z,81.50187815277141
2023-05-23T19:47:16.458Z,81.80515226095251
2023-05-23T19:51:16.590Z,81.77553954774707
2023-05-23T19:54:16.640Z,81.60841817609806
2023-05-23T19:57:16.518Z,81.44971390588869
2023-05-23T20:01:16.794Z,80.83121022108318
2023-05-23T20:04:16.890Z,80.63335307756572
2023-05-23T20:07:17.055Z,80.41452857321514
2023-05-23T20:11:16.909Z,80.18151446473613
2023-05-23T20:14:17.361Z,80.09695088009921
2023-05-23T20:17:17.253Z,79.8345100291419
2023-05-23T20:21:16.992Z,79.96242180530729
2023-05-23T20:24:17.093Z,79.98949192655881
2023-05-23T20:27:17.181Z,80.07405986499298
2023-05-23T20:31:17.033Z,80.50841269108479
2023-05-23T20:34:17.259Z,80.60721866841888
2023-05-23T20:37:17.088Z,80.6027938115204
2023-05-23T20:41:16.705Z,80.47063122760677
2023-05-23T20:44:17.494Z,80.5626710672051
2023-05-23T20:47:18.098Z,80.84222221945106
2023-05-23T20:51:17.370Z,80.97115892328557
2023-05-23T20:54:17.115Z,80.8484361282165
2023-05-23T20:57:17.181Z,80.61130165901595
2023-05-23T21:01:16.262Z,80.58253259840963
2023-05-23T21:04:18.725Z,80.81748209900955
2023-05-23T21:07:16.432Z,80.60909780492317
2023-05-23T21:11:16.881Z,80.60912743998514
2023-05-23T21:14:17.216Z,80.8323632968703
2023-05-23T21:17:19.792Z,80.98143541617925
2023-05-23T21:21:16.338Z,81.03352864909112
2023-05-23T21:24:16.664Z,81.10223671927278
2023-05-23T21:27:16.860Z,81.13190460647853
2023-05-23T21:31:19.817Z,81.22838895139839
2023-05-23T21:34:23.934Z,81.2109607436147
2023-05-23T21:37:17.275Z,81.13386975811834
2023-05-23T21:41:16.968Z,81.18391239888444
2023-05-23T21:44:17.896Z,81.10792020088438
2023-05-23T21:47:16.970Z,81.15921794978549
2023-05-23T21:51:16.956Z,81.29645871252349
2023-05-23T21:54:17.088Z,81.2037058530298
2023-05-23T21:57:17.103Z,81.44173273262044
2023-05-23T22:01:18.959Z,81.54405623597621
2023-05-23T22:04:20.184Z,81.46723738845408
2023-05-23T22:07:17.215Z,81.52811658960019
2023-05-23T22:11:16.345Z,81.7538885964469
2023-05-23T22:14:17.010Z,81.66540306910353
2023-05-23T22:17:18.114Z,81.7238679136576
2023-05-23T22:21:16.350Z,81.93524109182115
2023-05-23T22:24:16.898Z,82.12414907803011
2023-05-23T22:27:16.773Z,82.272888967028
2023-05-23T22:31:17.139Z,82.49498511192667
2023-05-23T22:34:17.238Z,82.84098022334064
2023-05-23T22:37:17.369Z,82.83583516327782
2023-05-23T22:44:17.101Z,82.96082726610517
2023-05-23T22:47:18.490Z,83.19773089755081
2023-05-23T22:51:16.807Z,83.35083797969861
2023-05-23T22:54:16.936Z,83.13420476417151
2023-05-23T22:57:16.932Z,82.9948935907036
2023-05-23T23:01:16.188Z,82.71585604261968
2023-05-23T23:04:16.483Z,82.84222658737244
2023-05-23T23:31:17.622Z,83.59144188531035
2023-05-23T23:34:17.169Z,83.85879808741124
2023-05-23T23:37:17.410Z,83.9809888186448
2023-05-23T23:41:16.496Z,84.32339197545394
2023-05-23T23:44:16.615Z,84.46721062387164
2023-05-23T23:47:16.560Z,84.60713789212159
2023-05-23T23:51:16.906Z,84.76812980719501
2023-05-23T23:54:16.800Z,84.66565075545815
2023-05-23T23:57:16.894Z,84.8476133555708
